Time;durP1;ratioP1;P1;durP2;ratioP2;P2;SDS_P1;SDS_P2;PMS_P1;PMS_P2;Temp;Humidity;BMP_temperature;BMP_pressure;BME280_temperature;BME280_humidity;BME280_pressure;Samples;Min_cycle;Max_cycle;Signal;HPM_P1;HPM_P2
2023/08/06 00:01:21;;;;;;;;;;;;;;;19.69;72.17;100372.28;4205976;28;20020;-69
2023/08/06 00:03:24;;;;;;;;;;;;;;;19.67;72.19;100375.25;4205414;28;19982;-68
2023/08/06 00:05:26;;;;;;;;;;;;;;;19.65;72.35;100374.66;4205773;28;20327;-68
2023/08/06 00:07:28;;;;;;;;;;;;;;;19.63;72.37;100372.16;4206385;28;20023;-68
2023/08/06 00:09:30;;;;;;;;;;;;;;;19.63;72.25;100371.34;4206573;28;20034;-68
2023/08/06 00:11:31;;;;;;;;;;;;;;;19.62;72.22;100365.03;4206319;28;20011;-68
2023/08/06 00:13:33;;;;;;;;;;;;;;;19.62;72.58;100364.19;4206275;28;19924;-70
2023/08/06 00:15:35;;;;;;;;;;;;;;;19.62;72.38;100362.28;4188267;28;20019;-68
2023/08/06 00:17:37;;;;;;;;;;;;;;;19.62;72.50;100358.72;4204847;28;20015;-68
2023/08/06 00:19:41;;;;;;;;;;;;;;;19.63;72.29;100358.47;4203971;28;20367;-69
2023/08/06 00:21:43;;;;;;;;;;;;;;;19.65;72.24;100357.41;4206152;28;20011;-69
2023/08/06 00:23:45;;;;;;;;;;;;;;;19.64;72.28;100351.09;4205426;28;19996;-69
2023/08/06 00:25:46;;;;;;;;;;;;;;;19.63;72.25;100358.47;4206520;28;20027;-68
2023/08/06 00:27:48;;;;;;;;;;;;;;;19.62;72.08;100354.09;4206197;28;19925;-70
2023/08/06 00:29:50;;;;;;;;;;;;;;;19.61;72.31;100349.66;4186427;28;20026;-69
2023/08/06 00:31:52;;;;;;;;;;;;;;;19.61;72.50;100355.16;4205922;28;20492;-69
2023/08/06 00:33:54;;;;;;;;;;;;;;;19.60;72.29;100353.47;4206206;28;20023;-70
2023/08/06 00:35:58;;;;;;;;;;;;;;;19.59;72.60;100362.78;4187241;28;20015;-69
2023/08/06 00:38:00;;;;;;;;;;;;;;;19.58;72.72;100352.06;4205739;28;20019;-69
2023/08/06 00:40:01;;;;;;;;;;;;;;;19.57;72.60;100353.97;4188078;28;20493;-70
2023/08/06 00:42:04;;;;;;;;;;;;;;;19.59;72.75;100350.97;4206066;28;20371;-70
2023/08/06 00:44:06;;;;;;;;;;;;;;;19.58;72.84;100349.34;4204629;28;20021;-69
2023/08/06 00:46:07;;;;;;;;;;;;;;;19.57;72.64;100348.50;4205762;28;20346;-69
2023/08/06 00:48:09;;;;;;;;;;;;;;;19.56;72.74;100341.38;4204837;28;19936;-69
2023/08/06 00:50:11;;;;;;;;;;;;;;;19.55;73.13;100350.66;4186109;28;20027;-69
2023/08/06 00:52:14;;;;;;;;;;;;;;;19.55;73.06;100347.09;4203927;28;20449;-69
2023/08/06 00:54:16;;;;;;;;;;;;;;;19.54;73.30;100348.97;4181407;28;20023;-69
2023/08/06 00:56:18;;;;;;;;;;;;;;;19.53;73.38;100347.34;4206134;28;20019;-69
2023/08/06 00:58:20;;;;;;;;;;;;;;;19.51;73.58;100344.00;4205507;28;20521;-70
2023/08/06 01:00:22;;;;;;;;;;;;;;;19.50;73.37;100344.25;4204915;28;20003;-70
2023/08/06 01:02:24;;;;;;;;;;;;;;;19.48;73.31;100340.94;4187486;28;20007;-69
2023/08/06 01:04:26;;;;;;;;;;;;;;;19.47;73.59;100345.59;4205312;28;20356;-69
2023/08/06 01:06:38;;;;;;;;;;;;;;;19.47;73.64;100345.59;4205773;28;20438;-69
2023/08/06 01:08:44;;;;;;;;;;;;;;;19.46;73.81;100341.16;4170687;28;20430;-70
2023/08/06 01:10:49;;;;;;;;;;;;;;;19.44;74.10;100333.19;4188556;28;20015;-69
2023/08/06 01:12:52;;;;;;;;;;;;;;;19.42;73.77;100337.28;4186181;28;20473;-69
2023/08/06 01:14:55;;;;;;;;;;;;;;;19.42;74.03;100338.09;4187079;28;20011;-69
2023/08/06 01:16:57;;;;;;;;;;;;;;;19.41;74.12;100336.44;4188734;28;20024;-69
2023/08/06 01:18:59;;;;;;;;;;;;;;;19.41;74.14;100336.44;4187524;28;20019;-69
2023/08/06 01:21:03;;;;;;;;;;;;;;;19.41;74.41;100338.34;4188532;28;20020;-69
2023/08/06 01:23:05;;;;;;;;;;;;;;;19.39;74.27;100330.38;4188173;28;20027;-69
2023/08/06 01:25:07;;;;;;;;;;;;;;;19.37;74.46;100323.47;4186675;28;20032;-70
2023/08/06 01:27:10;;;;;;;;;;;;;;;19.37;74.59;100323.47;4187085;28;20506;-69
2023/08/06 01:29:13;;;;;;;;;;;;;;;19.38;74.51;100319.66;4188542;28;20332;-69
2023/08/06 01:31:16;;;;;;;;;;;;;;;19.37;74.76;100315.25;4188386;28;20644;-69
2023/08/06 01:33:20;;;;;;;;;;;;;;;19.36;74.64;100311.69;4187285;28;19928;-68
2023/08/06 01:35:22;;;;;;;;;;;;;;;19.37;74.63;100305.16;4188095;28;20016;-69
2023/08/06 01:37:25;;;;;;;;;;;;;;;19.38;74.63;100315.00;4186922;28;20031;-69
2023/08/06 01:39:27;;;;;;;;;;;;;;;19.37;74.71;100312.53;4187845;28;20016;-68
2023/08/06 01:41:29;;;;;;;;;;;;;;;19.37;74.85;100310.63;4187064;28;20027;-68
2023/08/06 01:43:33;;;;;;;;;;;;;;;19.37;74.96;100307.03;4187256;28;20031;-69
2023/08/06 01:45:34;;;;;;;;;;;;;;;19.37;74.76;100307.03;4186312;28;20019;-69
2023/08/06 01:47:36;;;;;;;;;;;;;;;19.36;74.81;100299.94;4188194;28;20410;-69
2023/08/06 01:49:38;;;;;;;;;;;;;;;19.36;75.00;100291.72;4187836;28;20011;-68
2023/08/06 01:51:39;;;;;;;;;;;;;;;19.34;74.95;100296.59;4187761;28;20012;-68
2023/08/06 01:53:42;;;;;;;;;;;;;;;19.33;75.30;100286.72;4186121;28;20383;-68
2023/08/06 01:55:48;;;;;;;;;;;;;;;19.33;75.06;100289.47;4188032;28;20438;-68
2023/08/06 01:57:50;;;;;;;;;;;;;;;19.32;75.05;100279.56;4202277;28;20657;-68
2023/08/06 01:59:52;;;;;;;;;;;;;;;19.30;74.95;100277.09;4184984;28;20024;-68
2023/08/06 02:01:54;;;;;;;;;;;;;;;19.29;75.11;100272.69;4185271;28;20028;-68
2023/08/06 02:03:56;;;;;;;;;;;;;;;19.27;75.09;100281.13;4186495;28;20043;-68
2023/08/06 02:05:58;;;;;;;;;;;;;;;19.25;75.11;100282.47;4186029;28;20017;-68
2023/08/06 02:08:00;;;;;;;;;;;;;;;19.25;75.17;100274.25;4167504;28;20390;-68
2023/08/06 02:10:03;;;;;;;;;;;;;;;19.23;74.94;100280.00;4185541;28;20031;-69
2023/08/06 02:12:06;;;;;;;;;;;;;;;19.22;75.40;100277.50;4186148;28;20020;-68
2023/08/06 02:14:08;;;;;;;;;;;;;;;19.20;75.20;100275.00;4185446;28;20388;-68
2023/08/06 02:16:10;;;;;;;;;;;;;;;19.19;75.49;100277.97;4186923;28;20454;-68
2023/08/06 02:18:12;;;;;;;;;;;;;;;19.19;75.53;100275.25;4186788;28;20032;-68
2023/08/06 02:20:14;;;;;;;;;;;;;;;19.19;75.31;100275.25;4187291;28;20027;-68
2023/08/06 02:22:16;;;;;;;;;;;;;;;19.19;75.12;100267.84;4186063;28;20024;-68
2023/08/06 02:24:18;;;;;;;;;;;;;;;19.17;75.23;100270.00;4185275;28;20051;-69
2023/08/06 02:26:21;;;;;;;;;;;;;;;19.18;75.36;100262.63;4185907;28;19995;-68
2023/08/06 02:28:23;;;;;;;;;;;;;;;19.17;75.14;100253.59;4201674;28;20006;-68
2023/08/06 02:30:25;;;;;;;;;;;;;;;19.16;75.41;100257.41;4184812;28;20402;-68
2023/08/06 02:32:29;;;;;;;;;;;;;;;19.15;75.33;100252.16;4186020;28;20364;-68
2023/08/06 02:34:31;;;;;;;;;;;;;;;19.12;75.35;100250.75;4185583;28;20015;-68
2023/08/06 02:36:33;;;;;;;;;;;;;;;19.09;75.36;100248.53;4187798;28;20357;-68
2023/08/06 02:38:35;;;;;;;;;;;;;;;19.07;75.83;100256.97;4187397;28;20024;-68
2023/08/06 02:40:43;;;;;;;;;;;;;;;19.06;76.07;100246.28;4184854;28;20012;-69
2023/08/06 02:42:46;;;;;;;;;;;;;;;19.05;75.87;100247.34;4187550;28;20046;-68
2023/08/06 02:44:49;;;;;;;;;;;;;;;19.03;75.96;100249.50;4185256;28;20392;-68
2023/08/06 02:46:51;;;;;;;;;;;;;;;19.02;76.11;100247.84;4186444;28;20015;-68
2023/08/06 02:48:54;;;;;;;;;;;;;;;19.00;76.10;100241.78;4168392;28;20028;-68
2023/08/06 02:50:59;;;;;;;;;;;;;;;19.00;76.21;100233.56;4198005;28;20922;-68
2023/08/06 02:53:02;;;;;;;;;;;;;;;18.99;76.25;100232.72;4201702;28;20461;-68
2023/08/06 02:55:04;;;;;;;;;;;;;;;19.00;76.24;100237.13;4201349;28;20553;-68
2023/08/06 02:57:08;;;;;;;;;;;;;;;18.99;76.27;100243.66;4168985;28;20466;-68
2023/08/06 02:59:13;;;;;;;;;;;;;;;18.97;76.25;100242.28;4169217;28;20020;-68
2023/08/06 03:01:33;;;;;;;;;;;;;;;18.96;76.22;100246.91;4168867;28;20029;-68
2023/08/06 03:03:41;;;;;;;;;;;;;;;18.95;76.21;100242.50;4169011;28;20015;-68
2023/08/06 03:05:52;;;;;;;;;;;;;;;18.93;76.60;100241.09;4183553;28;20358;-69
2023/08/06 03:07:58;;;;;;;;;;;;;;;18.90;76.59;100237.78;4184335;28;20011;-68
2023/08/06 03:10:04;;;;;;;;;;;;;;;18.89;76.51;100238.03;4184519;28;20383;-68
2023/08/06 03:12:06;;;;;;;;;;;;;;;18.89;76.78;100238.03;4180525;28;20625;-68
2023/08/06 03:14:08;;;;;;;;;;;;;;;18.88;76.88;100231.69;4184646;28;20027;-68
2023/08/06 03:16:12;;;;;;;;;;;;;;;18.87;76.93;100232.78;4185432;28;19925;-68
2023/08/06 03:18:14;;;;;;;;;;;;;;;18.87;76.85;100226.47;4185244;28;20015;-68
2023/08/06 03:20:16;;;;;;;;;;;;;;;18.87;76.96;100218.25;4202062;28;20022;-68
2023/08/06 03:22:18;;;;;;;;;;;;;;;18.88;76.86;100209.00;4168832;28;20036;-68
2023/08/06 03:24:21;;;;;;;;;;;;;;;18.87;76.72;100210.91;4167669;28;20024;-68
2023/08/06 03:26:23;;;;;;;;;;;;;;;18.88;76.82;100212.53;4186766;28;20381;-68
2023/08/06 03:28:25;;;;;;;;;;;;;;;18.86;76.88;100197.47;4186213;28;20602;-68
2023/08/06 03:30:28;;;;;;;;;;;;;;;18.87;76.87;100199.09;4185064;28;20019;-68
2023/08/06 03:32:32;;;;;;;;;;;;;;;18.85;76.95;100182.94;4184268;28;20042;-68
2023/08/06 03:34:34;;;;;;;;;;;;;;;18.84;77.14;100191.34;4201416;28;20024;-68
2023/08/06 03:36:37;;;;;;;;;;;;;;;18.83;77.07;100189.72;4181655;28;19928;-68
2023/08/06 03:38:39;;;;;;;;;;;;;;;18.83;77.01;100184.25;4186696;28;20012;-68
2023/08/06 03:40:43;;;;;;;;;;;;;;;18.82;77.32;100191.59;4184069;28;20027;-68
2023/08/06 03:42:45;;;;;;;;;;;;;;;18.81;77.44;100183.63;4163306;28;20023;-68
2023/08/06 03:44:47;;;;;;;;;;;;;;;18.80;77.33;100188.28;4186471;28;20335;-68
2023/08/06 03:46:49;;;;;;;;;;;;;;;18.79;77.33;100180.34;4185890;28;20024;-68
2023/08/06 03:48:53;;;;;;;;;;;;;;;18.78;77.41;100178.66;4182900;28;20062;-68
2023/08/06 03:50:55;;;;;;;;;;;;;;;18.77;77.74;100175.09;4179915;28;20036;-68
2023/08/06 03:52:57;;;;;;;;;;;;;;;18.76;77.67;100169.88;4184733;28;20023;-68
2023/08/06 03:54:59;;;;;;;;;;;;;;;18.75;77.71;100168.25;4184763;28;19960;-68
2023/08/06 03:57:01;;;;;;;;;;;;;;;18.74;77.77;100170.13;4185811;28;19933;-68
2023/08/06 03:59:03;;;;;;;;;;;;;;;18.74;77.72;100170.13;4184684;28;20023;-68
2023/08/06 04:01:05;;;;;;;;;;;;;;;18.73;77.75;100166.56;4184696;28;20027;-68
2023/08/06 04:03:17;;;;;;;;;;;;;;;18.73;77.96;100163.00;4168910;28;20115;-68
2023/08/06 04:05:23;;;;;;;;;;;;;;;18.72;77.94;100156.69;4186334;28;19978;-68
2023/08/06 04:07:25;;;;;;;;;;;;;;;18.72;77.80;100151.22;4164189;28;20019;-68
2023/08/06 04:09:29;;;;;;;;;;;;;;;18.71;77.91;100152.31;4185664;28;20019;-68
2023/08/06 04:11:31;;;;;;;;;;;;;;;18.70;78.31;100152.56;4185120;28;20472;-68
2023/08/06 04:13:33;;;;;;;;;;;;;;;18.67;78.10;100147.59;4185995;28;20019;-68
2023/08/06 04:15:35;;;;;;;;;;;;;;;18.65;78.26;100152.44;4185130;28;20016;-68
2023/08/06 04:17:36;;;;;;;;;;;;;;;18.64;78.49;100153.53;4186090;28;20371;-68
2023/08/06 04:19:38;;;;;;;;;;;;;;;18.61;78.46;100141.16;4187297;28;19928;-68
2023/08/06 04:21:40;;;;;;;;;;;;;;;18.60;78.65;100144.16;4189605;28;20442;-68
2023/08/06 04:23:42;;;;;;;;;;;;;;;18.58;78.88;100135.38;4187589;28;20015;-68
2023/08/06 04:25:44;;;;;;;;;;;;;;;18.55;78.79;100136.69;4187467;28;20031;-68
2023/08/06 04:27:49;;;;;;;;;;;;;;;18.52;78.81;100134.44;4187375;28;20384;-68
2023/08/06 04:29:51;;;;;;;;;;;;;;;18.52;79.00;100128.97;4187359;28;20023;-68
2023/08/06 04:31:53;;;;;;;;;;;;;;;18.53;79.05;100131.47;4187782;28;20032;-68
2023/08/06 04:33:55;;;;;;;;;;;;;;;18.55;78.85;100123.00;4170788;28;20020;-68
2023/08/06 04:35:57;;;;;;;;;;;;;;;18.56;78.82;100124.69;4171136;28;20064;-68
2023/08/06 04:38:02;;;;;;;;;;;;;;;18.58;78.73;100125.25;4187084;28;19931;-68
2023/08/06 04:40:04;;;;;;;;;;;;;;;18.57;78.94;100118.13;4171658;28;20008;-68
2023/08/06 04:42:07;;;;;;;;;;;;;;;18.57;78.83;100114.56;4171362;28;20028;-68
2023/08/06 04:44:09;;;;;;;;;;;;;;;18.54;78.80;100110.41;4186731;28;20482;-68
2023/08/06 04:46:11;;;;;;;;;;;;;;;18.52;79.03;100107.09;4188019;28;20043;-68
2023/08/06 04:48:13;;;;;;;;;;;;;;;18.52;79.25;100104.34;4188576;28;20020;-68
2023/08/06 04:50:14;;;;;;;;;;;;;;;18.52;79.00;100102.44;4188446;28;20015;-68
2023/08/06 04:52:16;;;;;;;;;;;;;;;18.52;79.02;100094.25;4188818;28;20023;-68
2023/08/06 04:54:20;;;;;;;;;;;;;;;18.53;79.11;100100.56;4188415;28;20012;-68
2023/08/06 04:56:22;;;;;;;;;;;;;;;18.52;79.37;100101.63;4188825;28;20019;-68
2023/08/06 04:58:24;;;;;;;;;;;;;;;18.53;79.18;100098.66;4188268;28;19924;-68
2023/08/06 05:00:25;;;;;;;;;;;;;;;18.54;79.03;100099.47;4188393;28;20019;-68
2023/08/06 05:02:27;;;;;;;;;;;;;;;18.54;79.09;100100.31;4188559;28;19933;-68
2023/08/06 05:04:29;;;;;;;;;;;;;;;18.54;79.26;100102.19;4187463;28;20039;-68
2023/08/06 05:06:30;;;;;;;;;;;;;;;18.53;79.10;100103.28;4187992;28;20441;-68
2023/08/06 05:08:32;;;;;;;;;;;;;;;18.51;79.29;100109.00;4202016;28;20027;-68
2023/08/06 05:10:36;;;;;;;;;;;;;;;18.49;79.53;100099.38;4204410;28;20365;-68
2023/08/06 05:12:38;;;;;;;;;;;;;;;18.47;79.53;100098.81;4204989;28;20019;-68
2023/08/06 05:14:40;;;;;;;;;;;;;;;18.46;79.53;100097.94;4204681;28;20018;-68
2023/08/06 05:16:42;;;;;;;;;;;;;;;18.43;79.75;100093.00;4205916;28;20462;-68
2023/08/06 05:18:44;;;;;;;;;;;;;;;18.43;79.72;100087.53;4204327;28;20294;-68
2023/08/06 05:20:46;;;;;;;;;;;;;;;18.46;79.70;100080.72;4204795;28;20011;-68
2023/08/06 05:22:47;;;;;;;;;;;;;;;18.48;79.37;100078.56;4204046;28;20032;-69
2023/08/06 05:24:50;;;;;;;;;;;;;;;18.51;79.58;100072.59;4204830;28;20019;-68
2023/08/06 05:26:53;;;;;;;;;;;;;;;18.53;79.36;100075.94;4203949;28;20056;-68
2023/08/06 05:28:55;;;;;;;;;;;;;;;18.54;79.32;100070.22;4204123;28;20011;-68
2023/08/06 05:30:57;;;;;;;;;;;;;;;18.56;79.07;100075.47;4204716;28;20020;-68
2023/08/06 05:32:59;;;;;;;;;;;;;;;18.57;78.88;100066.16;4204584;28;20011;-68
2023/08/06 05:35:01;;;;;;;;;;;;;;;18.58;78.97;100065.09;4204354;28;20020;-69
2023/08/06 05:37:03;;;;;;;;;;;;;;;18.57;78.90;100063.41;4205345;28;20015;-70
2023/08/06 05:39:05;;;;;;;;;;;;;;;18.57;78.92;100071.63;4204605;28;19961;-68
2023/08/06 05:41:07;;;;;;;;;;;;;;;18.56;79.12;100070.00;4204209;28;20019;-68
2023/08/06 05:43:09;;;;;;;;;;;;;;;18.55;78.85;100071.06;4204824;28;20023;-69
2023/08/06 05:45:11;;;;;;;;;;;;;;;18.53;79.23;100071.28;4204741;28;20430;-69
2023/08/06 05:47:13;;;;;;;;;;;;;;;18.53;79.10;100070.47;4203341;28;20019;-69
2023/08/06 05:49:15;;;;;;;;;;;;;;;18.53;79.16;100073.22;4203537;28;20024;-69
2023/08/06 05:51:17;;;;;;;;;;;;;;;18.53;79.07;100071.28;4204430;28;20019;-68
2023/08/06 05:53:19;;;;;;;;;;;;;;;18.52;79.02;100064.16;4204533;28;20652;-69
2023/08/06 05:55:21;;;;;;;;;;;;;;;18.53;79.08;100068.56;4203202;28;20051;-68
2023/08/06 05:57:23;;;;;;;;;;;;;;;18.54;78.98;100069.38;4204975;28;19955;-68
2023/08/06 05:59:27;;;;;;;;;;;;;;;18.53;79.24;100065.81;4203629;28;19946;-68
2023/08/06 06:01:29;;;;;;;;;;;;;;;18.53;78.93;100065.81;4203972;28;20038;-69
2023/08/06 06:03:31;;;;;;;;;;;;;;;18.53;79.26;100054.88;4203009;28;20363;-68
2023/08/06 06:05:33;;;;;;;;;;;;;;;18.55;79.16;100057.38;4204086;28;20023;-68
2023/08/06 06:07:35;;;;;;;;;;;;;;;18.55;79.21;100058.19;4204113;28;20382;-69
2023/08/06 06:09:37;;;;;;;;;;;;;;;18.55;79.04;100052.72;4203617;28;20023;-68
2023/08/06 06:11:39;;;;;;;;;;;;;;;18.58;78.95;100064.28;4204029;28;19963;-69
2023/08/06 06:13:41;;;;;;;;;;;;;;;18.58;79.13;100056.88;4205430;28;20454;-68
2023/08/06 06:15:44;;;;;;;;;;;;;;;18.59;78.92;100053.09;4204560;28;20015;-68
2023/08/06 06:17:45;;;;;;;;;;;;;;;18.60;79.04;100048.44;4204036;28;20024;-68
2023/08/06 06:19:47;;;;;;;;;;;;;;;18.61;78.88;100041.91;4202731;28;19928;-68
2023/08/06 06:21:49;;;;;;;;;;;;;;;18.61;78.94;100042.72;4203154;28;20010;-68
2023/08/06 06:23:52;;;;;;;;;;;;;;;18.62;78.87;100047.13;4204130;28;20063;-68
2023/08/06 06:25:55;;;;;;;;;;;;;;;18.62;78.92;100043.53;4204179;28;20804;-68
2023/08/06 06:27:58;;;;;;;;;;;;;;;18.62;78.93;100041.66;4202934;28;20023;-68
2023/08/06 06:30:00;;;;;;;;;;;;;;;18.62;78.85;100038.91;4203682;28;20023;-68
2023/08/06 06:32:04;;;;;;;;;;;;;;;18.63;78.71;100037.81;4202638;28;19924;-68
2023/08/06 06:34:06;;;;;;;;;;;;;;;18.64;78.88;100042.22;4201341;28;20798;-68
2023/08/06 06:36:08;;;;;;;;;;;;;;;18.66;78.77;100037.31;4203810;28;20014;-68
2023/08/06 06:38:10;;;;;;;;;;;;;;;18.67;78.86;100039.00;4204468;28;20015;-68
2023/08/06 06:40:12;;;;;;;;;;;;;;;18.68;78.81;100032.47;4203444;28;20055;-68
2023/08/06 06:42:15;;;;;;;;;;;;;;;18.71;78.81;100044.78;4202483;28;20014;-68
2023/08/06 06:44:20;;;;;;;;;;;;;;;18.71;79.01;100037.44;4184232;28;20034;-68
2023/08/06 06:46:22;;;;;;;;;;;;;;;18.70;78.90;100033.03;4203080;28;20014;-68
2023/08/06 06:48:26;;;;;;;;;;;;;;;18.71;78.80;100033.84;4202261;28;20019;-69
2023/08/06 06:50:28;;;;;;;;;;;;;;;18.72;78.60;100024.56;4203002;28;20370;-69
2023/08/06 06:52:30;;;;;;;;;;;;;;;18.70;78.63;100030.28;4203461;28;20027;-69
2023/08/06 06:54:32;;;;;;;;;;;;;;;18.70;78.61;100035.75;4203671;28;20031;-69
2023/08/06 06:56:34;;;;;;;;;;;;;;;18.71;78.63;100031.97;4203298;28;20032;-69
2023/08/06 06:58:38;;;;;;;;;;;;;;;18.72;78.45;100025.41;4202952;28;20006;-69
2023/08/06 07:00:40;;;;;;;;;;;;;;;18.73;78.59;100034.44;4203227;28;20031;-68
2023/08/06 07:02:42;;;;;;;;;;;;;;;18.73;78.73;100040.75;4183943;28;20027;-70
2023/08/06 07:04:45;;;;;;;;;;;;;;;18.74;78.58;100038.81;4203313;28;20023;-69
2023/08/06 07:06:48;;;;;;;;;;;;;;;18.72;78.58;100033.59;4203207;28;20454;-69
2023/08/06 07:08:50;;;;;;;;;;;;;;;18.74;78.68;100036.09;4203135;28;20035;-70
2023/08/06 07:10:52;;;;;;;;;;;;;;;18.75;78.68;100034.19;4203497;28;20030;-70
2023/08/06 07:12:54;;;;;;;;;;;;;;;18.77;78.38;100041.06;4201691;28;20035;-70
2023/08/06 07:14:56;;;;;;;;;;;;;;;18.80;78.49;100045.22;4196505;28;20027;-69
2023/08/06 07:16:58;;;;;;;;;;;;;;;18.81;78.35;100036.75;4202346;28;20101;-70
2023/08/06 07:19:00;;;;;;;;;;;;;;;18.82;78.21;100038.41;4200936;28;20015;-69
2023/08/06 07:21:04;;;;;;;;;;;;;;;18.83;78.01;100040.06;4200142;28;19946;-70
2023/08/06 07:23:06;;;;;;;;;;;;;;;18.84;77.97;100041.78;4202821;28;20023;-69
2023/08/06 07:25:08;;;;;;;;;;;;;;;18.86;78.20;100041.53;4201485;28;20019;-70
2023/08/06 07:27:10;;;;;;;;;;;;;;;18.83;78.48;100042.81;4202369;28;20090;-70
2023/08/06 07:29:12;;;;;;;;;;;;;;;18.85;78.71;100040.69;4200611;28;20031;-70
2023/08/06 07:31:14;;;;;;;;;;;;;;;18.85;78.57;100035.19;4201157;28;20011;-70
2023/08/06 07:33:16;;;;;;;;;;;;;;;18.86;78.27;100036.88;4203240;28;20026;-70
2023/08/06 07:35:18;;;;;;;;;;;;;;;18.86;78.49;100036.06;4201860;28;20022;-70
2023/08/06 07:37:21;;;;;;;;;;;;;;;18.84;78.63;100039.03;4202902;28;20011;-70
2023/08/06 07:39:23;;;;;;;;;;;;;;;18.83;78.84;100037.34;4202986;28;19971;-70
2023/08/06 07:41:25;;;;;;;;;;;;;;;18.82;79.12;100038.41;4202220;28;19935;-70
2023/08/06 07:43:27;;;;;;;;;;;;;;;18.82;78.96;100040.31;4184434;28;19928;-70
2023/08/06 07:45:33;;;;;;;;;;;;;;;18.83;78.91;100033.78;4198644;28;20023;-70
2023/08/06 07:47:35;;;;;;;;;;;;;;;18.81;79.57;100036.75;4199126;28;20023;-70
2023/08/06 07:49:36;;;;;;;;;;;;;;;18.80;79.88;100034.28;4199510;28;20651;-70
2023/08/06 07:51:38;;;;;;;;;;;;;;;18.76;80.62;100030.38;4201409;28;20026;-70
2023/08/06 07:53:42;;;;;;;;;;;;;;;18.75;80.05;100031.47;4203829;28;20011;-70
2023/08/06 07:55:44;;;;;;;;;;;;;;;18.71;80.85;100039.31;4205381;28;20444;-70
2023/08/06 07:57:46;;;;;;;;;;;;;;;18.68;81.26;100037.94;4205183;28;20051;-70
2023/08/06 07:59:48;;;;;;;;;;;;;;;18.67;80.83;100032.72;4204375;28;20014;-70
2023/08/06 08:01:50;;;;;;;;;;;;;;;18.64;81.43;100030.47;4203971;28;19929;-70
2023/08/06 08:03:52;;;;;;;;;;;;;;;18.59;81.73;100031.22;4206349;28;20030;-70
2023/08/06 08:05:56;;;;;;;;;;;;;;;18.57;81.73;100033.34;4205535;28;20127;-70
2023/08/06 08:07:58;;;;;;;;;;;;;;;18.55;81.16;100030.84;4205716;28;20371;-70
2023/08/06 08:10:01;;;;;;;;;;;;;;;18.55;81.67;100033.59;4204108;28;20007;-70
2023/08/06 08:12:03;;;;;;;;;;;;;;;18.56;81.17;100031.69;4206133;28;20014;-70
2023/08/06 08:14:05;;;;;;;;;;;;;;;18.55;80.66;100027.31;4204835;28;20373;-70
2023/08/06 08:16:07;;;;;;;;;;;;;;;18.58;80.97;100034.19;4206221;28;20030;-71
2023/08/06 08:18:09;;;;;;;;;;;;;;;18.56;81.11;100031.69;4205954;28;20027;-70
2023/08/06 08:20:11;;;;;;;;;;;;;;;18.58;80.72;100028.72;4205420;28;20027;-70
2023/08/06 08:22:13;;;;;;;;;;;;;;;18.57;81.19;100029.78;4205309;28;19932;-70
2023/08/06 08:24:19;;;;;;;;;;;;;;;18.57;81.15;100025.13;4187623;28;20015;-70
2023/08/06 08:26:23;;;;;;;;;;;;;;;18.55;81.28;100025.38;4206029;28;20461;-70
2023/08/06 08:28:25;;;;;;;;;;;;;;;18.55;81.65;100021.84;4203956;28;20287;-70
2023/08/06 08:30:27;;;;;;;;;;;;;;;18.53;81.42;100011.13;4186832;28;20450;-70
2023/08/06 08:32:28;;;;;;;;;;;;;;;18.54;81.05;100007.34;4206025;28;20430;-70
2023/08/06 08:34:30;;;;;;;;;;;;;;;18.56;81.42;100009.81;4205193;28;19928;-70
2023/08/06 08:36:32;;;;;;;;;;;;;;;18.55;82.16;100008.16;4204979;28;20021;-71
2023/08/06 08:38:34;;;;;;;;;;;;;;;18.52;82.18;100008.66;4204212;28;20098;-70
2023/08/06 08:40:36;;;;;;;;;;;;;;;18.53;81.78;99999.38;4203424;28;20026;-70
2023/08/06 08:42:39;;;;;;;;;;;;;;;18.53;81.45;99994.72;4205427;28;20005;-70
2023/08/06 08:44:41;;;;;;;;;;;;;;;18.56;81.30;99990.69;4204209;28;20019;-70
2023/08/06 08:46:43;;;;;;;;;;;;;;;18.59;81.02;99994.81;4204971;28;20012;-70
2023/08/06 08:48:45;;;;;;;;;;;;;;;18.60;81.56;99980.88;4204530;28;20023;-70
2023/08/06 08:50:48;;;;;;;;;;;;;;;18.61;81.33;99982.56;4204532;28;20462;-70
2023/08/06 08:52:50;;;;;;;;;;;;;;;18.63;81.48;99976.84;4202563;28;20019;-70
2023/08/06 08:54:52;;;;;;;;;;;;;;;18.64;81.30;99971.13;4204846;28;19977;-70
2023/08/06 08:56:56;;;;;;;;;;;;;;;18.67;81.08;99970.63;4204507;28;20030;-71
2023/08/06 08:58:59;;;;;;;;;;;;;;;18.69;80.82;99973.94;4204757;28;20015;-71
2023/08/06 09:01:02;;;;;;;;;;;;;;;18.72;80.59;99970.69;4203707;28;20027;-70
2023/08/06 09:03:05;;;;;;;;;;;;;;;18.76;80.27;99964.72;4204507;28;19924;-71
2023/08/06 09:05:07;;;;;;;;;;;;;;;18.79;79.96;99970.50;4204814;28;20421;-71
2023/08/06 09:07:09;;;;;;;;;;;;;;;18.81;80.56;99956.59;4204871;28;19964;-71
2023/08/06 09:09:13;;;;;;;;;;;;;;;18.82;80.53;99950.03;4204707;28;20019;-71
2023/08/06 09:11:14;;;;;;;;;;;;;;;18.85;80.30;99957.78;4204787;28;20010;-71
2023/08/06 09:13:17;;;;;;;;;;;;;;;18.88;79.71;99954.53;4204920;28;20626;-69
2023/08/06 09:15:20;;;;;;;;;;;;;;;18.91;79.72;99951.31;4204137;28;20027;-71
2023/08/06 09:17:22;;;;;;;;;;;;;;;18.93;80.13;99951.88;4205063;28;20020;-71
2023/08/06 09:19:24;;;;;;;;;;;;;;;18.95;80.82;99947.00;4204211;28;20019;-71
2023/08/06 09:21:26;;;;;;;;;;;;;;;18.96;80.81;99956.84;4204641;28;20027;-72
2023/08/06 09:23:29;;;;;;;;;;;;;;;18.98;80.24;99951.13;4204306;28;19924;-71
2023/08/06 09:25:31;;;;;;;;;;;;;;;18.99;79.79;99942.66;4204769;28;20066;-69
2023/08/06 09:27:33;;;;;;;;;;;;;;;19.00;79.75;99941.59;4204084;28;20078;-70
2023/08/06 09:29:34;;;;;;;;;;;;;;;19.02;79.49;99942.16;4204049;28;20031;-68
2023/08/06 09:31:42;;;;;;;;;;;;;;;19.04;79.62;99933.69;4203912;28;20353;-72
2023/08/06 09:33:45;;;;;;;;;;;;;;;19.07;79.66;99935.94;4203819;28;20035;-69
2023/08/06 09:35:47;;;;;;;;;;;;;;;19.06;79.41;99926.91;4204821;28;20063;-70
2023/08/06 09:37:49;;;;;;;;;;;;;;;19.11;79.13;99922.56;4204747;28;20019;-69
2023/08/06 09:39:53;;;;;;;;;;;;;;;19.12;79.31;99925.03;4202022;28;20031;-69
2023/08/06 09:41:56;;;;;;;;;;;;;;;19.13;79.44;99928.63;4204313;28;20047;-69
2023/08/06 09:43:58;;;;;;;;;;;;;;;19.16;79.73;99917.97;4204367;28;20450;-71
2023/08/06 09:46:00;;;;;;;;;;;;;;;19.16;79.92;99923.47;4204218;28;20023;-70
2023/08/06 09:48:05;;;;;;;;;;;;;;;19.18;79.55;99923.22;4204077;28;20935;-71
2023/08/06 09:50:08;;;;;;;;;;;;;;;19.18;80.06;99917.72;4185202;28;20035;-71
2023/08/06 09:52:11;;;;;;;;;;;;;;;19.17;80.25;99910.59;4203173;28;20023;-70
2023/08/06 09:54:14;;;;;;;;;;;;;;;19.18;80.69;99915.00;4203691;28;20023;-71
2023/08/06 09:56:16;;;;;;;;;;;;;;;19.17;80.27;99916.91;4204070;28;20709;-70
2023/08/06 09:58:17;;;;;;;;;;;;;;;19.18;79.78;99917.72;4204467;28;20473;-71
2023/08/06 10:00:20;;;;;;;;;;;;;;;19.19;79.99;99908.44;4203379;28;20358;-71
2023/08/06 10:02:22;;;;;;;;;;;;;;;19.19;79.80;99898.31;4202710;28;20409;-71
2023/08/06 10:04:26;;;;;;;;;;;;;;;19.20;79.95;99899.97;4186197;28;20398;-70
2023/08/06 10:06:28;;;;;;;;;;;;;;;19.21;79.90;99898.88;4203749;28;20019;-71
2023/08/06 10:08:30;;;;;;;;;;;;;;;19.22;80.50;99900.53;4203794;28;20034;-71
2023/08/06 10:10:32;;;;;;;;;;;;;;;19.22;80.81;99899.72;4202997;28;20026;-71
2023/08/06 10:12:34;;;;;;;;;;;;;;;19.21;80.70;99896.16;4204186;28;20019;-71
2023/08/06 10:14:37;;;;;;;;;;;;;;;19.21;80.25;99887.94;4204046;28;20641;-70
2023/08/06 10:16:38;;;;;;;;;;;;;;;19.23;79.84;99887.69;4202856;28;20022;-72
2023/08/06 10:18:40;;;;;;;;;;;;;;;19.23;79.57;99882.19;4202279;28;20382;-71
2023/08/06 10:20:44;;;;;;;;;;;;;;;19.24;79.21;99883.88;4203208;28;20023;-71
2023/08/06 10:22:45;;;;;;;;;;;;;;;19.23;79.02;99888.53;4203243;28;20018;-71
2023/08/06 10:24:50;;;;;;;;;;;;;;;19.26;79.37;99887.16;4169573;28;20004;-71
2023/08/06 10:26:52;;;;;;;;;;;;;;;19.26;79.54;99881.69;4202611;28;20031;-71
2023/08/06 10:28:54;;;;;;;;;;;;;;;19.26;79.34;99876.22;4203298;28;20018;-71
2023/08/06 10:30:57;;;;;;;;;;;;;;;19.26;79.66;99881.69;4202936;28;20466;-71